Agia Marina — SX5375 — position and weather

sailwx.info

Track history (hours):
 
Tides and Currents Weather Stations Pressure Air Temp Water Temp Dewpoint Dewpoint Depression Visibility Wind Speed Wind Dir Waves Ship Positions

Agia Marina

Last reported at 2015-Aug-29 12:32 UTC. Time now 2015-Aug-29 12:44 UTC.
Position N 38°02' E 023°36'.

Length 59 m; draft 2.5 m.

Type: Cargo ship. MMSI: 237042500.

Date/timePositionNaut miles runAvg speedWind from/ knotsBaromVisibWave heightAir tempDewpointWater temp
2015-Aug-29 12:32N 38°02' E 023°36'0 0.0
2015-Aug-29 11:33N 38°02' E 023°36'0 0.0
2015-Aug-29 10:33N 38°02' E 023°36'0 0.0
2015-Aug-29 09:33N 38°02' E 023°36'0 0.0
2015-Aug-29 08:33N 38°02' E 023°36'0 0.0
2015-Aug-29 07:33N 38°02' E 023°36'0 0.0
2015-Aug-29 06:33N 38°02' E 023°36'0 0.0
2015-Aug-29 05:33N 38°02' E 023°36'0 0.0
2015-Aug-29 04:33N 38°02' E 023°36'0 0.0
2015-Aug-29 03:33N 38°02' E 023°36'0 0.0
2015-Aug-29 02:33N 38°02' E 023°36'0 0.0
2015-Aug-29 01:31N 38°02' E 023°36'0 0.0
2015-Aug-29 00:33N 38°02' E 023°36'0 0.0
2015-Aug-28 23:33N 38°02' E 023°36'0 0.0
2015-Aug-28 22:33N 38°02' E 023°36'0 0.0
2015-Aug-28 21:33N 38°02' E 023°36'0 0.0
2015-Aug-28 20:33N 38°02' E 023°36'0 0.0
2015-Aug-28 19:33N 38°02' E 023°36'0 0.0
2015-Aug-28 18:33N 38°02' E 023°36'0 0.0
2015-Aug-28 17:33N 38°02' E 023°36'0 0.0
2015-Aug-28 16:33N 38°02' E 023°36'0 0.0
2015-Aug-28 15:33N 38°02' E 023°36'0 0.0
2015-Aug-28 14:33N 38°02' E 023°36'0 0.0
2015-Aug-28 13:32N 38°02' E 023°36'0 0.0
2015-Aug-28 12:33N 38°02' E 023°36'0 0.0
2015-Aug-28 11:33N 38°02' E 023°36'0 0.0
2015-Aug-28 10:33N 38°02' E 023°36'0 0.0
2015-Aug-28 09:33N 38°02' E 023°36'0 0.0
2015-Aug-28 08:32N 38°02' E 023°36'0 0.0
2015-Aug-28 07:33N 38°02' E 023°36'0 0.0
2015-Aug-28 06:32N 38°02' E 023°36'0 0.0
2015-Aug-28 05:33N 38°02' E 023°36'0 0.0
2015-Aug-28 04:33N 38°02' E 023°36'0 0.0
2015-Aug-28 03:33N 38°02' E 023°36'0 0.0
2015-Aug-28 02:33N 38°02' E 023°36'0 0.0
2015-Aug-28 01:33N 38°02' E 023°36'0 0.0
2015-Aug-28 00:33N 38°02' E 023°36'0 0.0
2015-Aug-27 23:33N 38°02' E 023°36'0 0.0
2015-Aug-27 22:33N 38°02' E 023°36'0 0.0
2015-Aug-27 21:33N 38°02' E 023°36'0 0.0
2015-Aug-27 20:33N 38°02' E 023°36'0 0.0
2015-Aug-27 19:33N 38°02' E 023°36'0 0.0
2015-Aug-27 18:33N 38°02' E 023°36'0 0.0
2015-Aug-27 17:33N 38°02' E 023°36'0 0.0
2015-Aug-27 16:33N 38°02' E 023°36'0 0.0
2015-Aug-27 15:33N 38°02' E 023°36'0 0.0
2015-Aug-27 14:33N 38°02' E 023°36'0 0.0
2015-Aug-27 13:33N 38°02' E 023°36'0 0.0
2015-Aug-27 12:33N 38°02' E 023°36'0 0.0
2015-Aug-27 11:33N 38°02' E 023°36'0 0.0
2015-Aug-27 10:28N 38°02' E 023°36'0 0.0
2015-Aug-27 09:33N 38°02' E 023°36'0 0.0
2015-Aug-27 08:33N 38°02' E 023°36'0 0.0
2015-Aug-27 07:33N 38°02' E 023°36'0 0.0
2015-Aug-27 06:33N 38°02' E 023°36'0 0.0
2015-Aug-27 05:33N 38°02' E 023°36'0 0.0
2015-Aug-27 04:33N 38°02' E 023°36'0 0.0
2015-Aug-27 03:33N 38°02' E 023°36'0 0.0
2015-Aug-27 02:33N 38°02' E 023°36'0 0.0
2015-Aug-27 01:33N 38°02' E 023°36'0 0.0
2015-Aug-27 00:33N 38°02' E 023°36'0 0.0
2015-Aug-26 23:33N 38°02' E 023°36'0 0.0
2015-Aug-26 22:31N 38°02' E 023°36'0 0.0
2015-Aug-26 21:33N 38°02' E 023°36'0 0.0
2015-Aug-26 20:33N 38°02' E 023°36'0 0.0
2015-Aug-26 19:33N 38°02' E 023°36'0 0.0
2015-Aug-26 18:33N 38°02' E 023°36'0 0.0
2015-Aug-26 17:33N 38°02' E 023°36'0 0.0
2015-Aug-26 16:33N 38°02' E 023°36'4 4.3
2015-Aug-26 15:33N 37°58' E 023°33'6 5.7
2015-Aug-26 14:33N 37°53' E 023°37'6 6.1
2015-Aug-26 13:33N 37°48' E 023°40'6 6.3
2015-Aug-26 12:33N 37°42' E 023°44'6 6.3
2015-Aug-26 11:33N 37°39' E 023°50'  
2015-Aug-21 04:33N 37°22' E 024°45'7 7.0
2015-Aug-21 03:33N 37°19' E 024°53'7 7.3
2015-Aug-21 02:33N 37°16' E 025°02'7 7.4
2015-Aug-21 01:33N 37°13' E 025°10'7 7.4
2015-Aug-21 00:33N 37°10' E 025°18'5 4.6
2015-Aug-20 23:33N 37°06' E 025°22'0 0.0
2015-Aug-20 22:33N 37°06' E 025°22'5 4.7
2015-Aug-20 21:33N 37°10' E 025°25'7 7.5
2015-Aug-20 20:33N 37°16' E 025°32'8 7.6
2015-Aug-20 19:33N 37°21' E 025°39'7 7.1
2015-Aug-20 18:33N 37°25' E 025°46'7 6.7
2015-Aug-20 17:33N 37°30' E 025°52'7 7.0
2015-Aug-20 16:33N 37°35' E 025°58'7 6.7
2015-Aug-20 15:33N 37°39' E 026°05'5 1.9
2015-Aug-20 13:04N 37°38' E 026°11'1 1.2
2015-Aug-20 12:31N 37°39' E 026°12'3 1.6
2015-Aug-20 10:31N 37°40' E 026°15'5 5.7
2015-Aug-20 09:33N 37°42' E 026°22'6 6.2
2015-Aug-20 08:30N 37°45' E 026°30'7 6.5
2015-Aug-20 07:27N 37°47' E 026°38'0 0.1
2015-Aug-20 04:14N 37°47' E 026°37'6 6.6
2015-Aug-20 03:16N 37°44' E 026°30'12 4.3
2015-Aug-20 00:27N 37°37' E 026°18'0 0.0
2015-Aug-19 22:20N 37°37' E 026°18'6 1.4
2015-Aug-19 18:21N 37°32' E 026°22'5 6.2
2015-Aug-19 17:33N 37°29' E 026°27'6 6.2
2015-Aug-19 16:33N 37°25' E 026°33'6 6.0
2015-Aug-19 15:33N 37°20' E 026°37'  
Track history (hours):
 
Tides and Currents Weather Stations Pressure Air Temp Water Temp Dewpoint Dewpoint Depression Visibility Wind Speed Wind Dir Waves Ship Positions

Agia Marina

Last reported at 2015-Aug-29 12:32 UTC. Time now 2015-Aug-29 12:44 UTC.
Position N 38°02' E 023°36'.

Length 59 m; draft 2.5 m.

Type: Cargo ship. MMSI: 237042500.

Date/timePositionNaut miles runAvg speedWind from/ knotsBaromVisibWave heightAir tempDewpointWater temp
2015-Aug-29 12:32N 38°02' E 023°36'0 0.0
2015-Aug-29 11:33N 38°02' E 023°36'0 0.0
2015-Aug-29 10:33N 38°02' E 023°36'0 0.0
2015-Aug-29 09:33N 38°02' E 023°36'0 0.0
2015-Aug-29 08:33N 38°02' E 023°36'0 0.0
2015-Aug-29 07:33N 38°02' E 023°36'0 0.0
2015-Aug-29 06:33N 38°02' E 023°36'0 0.0
2015-Aug-29 05:33N 38°02' E 023°36'0 0.0
2015-Aug-29 04:33N 38°02' E 023°36'0 0.0
2015-Aug-29 03:33N 38°02' E 023°36'0 0.0
2015-Aug-29 02:33N 38°02' E 023°36'0 0.0
2015-Aug-29 01:31N 38°02' E 023°36'0 0.0
2015-Aug-29 00:33N 38°02' E 023°36'0 0.0
2015-Aug-28 23:33N 38°02' E 023°36'0 0.0
2015-Aug-28 22:33N 38°02' E 023°36'0 0.0
2015-Aug-28 21:33N 38°02' E 023°36'0 0.0
2015-Aug-28 20:33N 38°02' E 023°36'0 0.0
2015-Aug-28 19:33N 38°02' E 023°36'0 0.0
2015-Aug-28 18:33N 38°02' E 023°36'0 0.0
2015-Aug-28 17:33N 38°02' E 023°36'0 0.0
2015-Aug-28 16:33N 38°02' E 023°36'0 0.0
2015-Aug-28 15:33N 38°02' E 023°36'0 0.0
2015-Aug-28 14:33N 38°02' E 023°36'0 0.0
2015-Aug-28 13:32N 38°02' E 023°36'0 0.0
2015-Aug-28 12:33N 38°02' E 023°36'0 0.0
2015-Aug-28 11:33N 38°02' E 023°36'0 0.0
2015-Aug-28 10:33N 38°02' E 023°36'0 0.0
2015-Aug-28 09:33N 38°02' E 023°36'0 0.0
2015-Aug-28 08:32N 38°02' E 023°36'0 0.0
2015-Aug-28 07:33N 38°02' E 023°36'0 0.0
2015-Aug-28 06:32N 38°02' E 023°36'0 0.0
2015-Aug-28 05:33N 38°02' E 023°36'0 0.0
2015-Aug-28 04:33N 38°02' E 023°36'0 0.0
2015-Aug-28 03:33N 38°02' E 023°36'0 0.0
2015-Aug-28 02:33N 38°02' E 023°36'0 0.0
2015-Aug-28 01:33N 38°02' E 023°36'0 0.0
2015-Aug-28 00:33N 38°02' E 023°36'0 0.0
2015-Aug-27 23:33N 38°02' E 023°36'0 0.0
2015-Aug-27 22:33N 38°02' E 023°36'0 0.0
2015-Aug-27 21:33N 38°02' E 023°36'0 0.0
2015-Aug-27 20:33N 38°02' E 023°36'0 0.0
2015-Aug-27 19:33N 38°02' E 023°36'0 0.0
2015-Aug-27 18:33N 38°02' E 023°36'0 0.0
2015-Aug-27 17:33N 38°02' E 023°36'0 0.0
2015-Aug-27 16:33N 38°02' E 023°36'0 0.0
2015-Aug-27 15:33N 38°02' E 023°36'0 0.0
2015-Aug-27 14:33N 38°02' E 023°36'0 0.0
2015-Aug-27 13:33N 38°02' E 023°36'0 0.0
2015-Aug-27 12:33N 38°02' E 023°36'0 0.0
2015-Aug-27 11:33N 38°02' E 023°36'0 0.0
2015-Aug-27 10:28N 38°02' E 023°36'0 0.0
2015-Aug-27 09:33N 38°02' E 023°36'0 0.0
2015-Aug-27 08:33N 38°02' E 023°36'0 0.0
2015-Aug-27 07:33N 38°02' E 023°36'0 0.0
2015-Aug-27 06:33N 38°02' E 023°36'0 0.0
2015-Aug-27 05:33N 38°02' E 023°36'0 0.0
2015-Aug-27 04:33N 38°02' E 023°36'0 0.0
2015-Aug-27 03:33N 38°02' E 023°36'0 0.0
2015-Aug-27 02:33N 38°02' E 023°36'0 0.0
2015-Aug-27 01:33N 38°02' E 023°36'0 0.0
2015-Aug-27 00:33N 38°02' E 023°36'0 0.0
2015-Aug-26 23:33N 38°02' E 023°36'0 0.0
2015-Aug-26 22:31N 38°02' E 023°36'0 0.0
2015-Aug-26 21:33N 38°02' E 023°36'0 0.0
2015-Aug-26 20:33N 38°02' E 023°36'0 0.0
2015-Aug-26 19:33N 38°02' E 023°36'0 0.0
2015-Aug-26 18:33N 38°02' E 023°36'0 0.0
2015-Aug-26 17:33N 38°02' E 023°36'0 0.0
2015-Aug-26 16:33N 38°02' E 023°36'4 4.3
2015-Aug-26 15:33N 37°58' E 023°33'6 5.7
2015-Aug-26 14:33N 37°53' E 023°37'6 6.1
2015-Aug-26 13:33N 37°48' E 023°40'6 6.3
2015-Aug-26 12:33N 37°42' E 023°44'6 6.3
2015-Aug-26 11:33N 37°39' E 023°50'  
2015-Aug-21 04:33N 37°22' E 024°45'7 7.0
2015-Aug-21 03:33N 37°19' E 024°53'7 7.3
2015-Aug-21 02:33N 37°16' E 025°02'7 7.4
2015-Aug-21 01:33N 37°13' E 025°10'7 7.4
2015-Aug-21 00:33N 37°10' E 025°18'5 4.6
2015-Aug-20 23:33N 37°06' E 025°22'0 0.0
2015-Aug-20 22:33N 37°06' E 025°22'5 4.7
2015-Aug-20 21:33N 37°10' E 025°25'7 7.5
2015-Aug-20 20:33N 37°16' E 025°32'8 7.6
2015-Aug-20 19:33N 37°21' E 025°39'7 7.1
2015-Aug-20 18:33N 37°25' E 025°46'7 6.7
2015-Aug-20 17:33N 37°30' E 025°52'7 7.0
2015-Aug-20 16:33N 37°35' E 025°58'7 6.7
2015-Aug-20 15:33N 37°39' E 026°05'5 1.9
2015-Aug-20 13:04N 37°38' E 026°11'1 1.2
2015-Aug-20 12:31N 37°39' E 026°12'3 1.6
2015-Aug-20 10:31N 37°40' E 026°15'5 5.7
2015-Aug-20 09:33N 37°42' E 026°22'6 6.2
2015-Aug-20 08:30N 37°45' E 026°30'7 6.5
2015-Aug-20 07:27N 37°47' E 026°38'0 0.1
2015-Aug-20 04:14N 37°47' E 026°37'6 6.6
2015-Aug-20 03:16N 37°44' E 026°30'12 4.3
2015-Aug-20 00:27N 37°37' E 026°18'0 0.0
2015-Aug-19 22:20N 37°37' E 026°18'6 1.4
2015-Aug-19 18:21N 37°32' E 026°22'5 6.2
2015-Aug-19 17:33N 37°29' E 026°27'6 6.2
2015-Aug-19 16:33N 37°25' E 026°33'6 6.0
2015-Aug-19 15:33N 37°20' E 026°37'  

Dump ship's entire track history